Time;durP1;ratioP1;P1;durP2;ratioP2;P2;SDS_P1;SDS_P2;PMS_P1;PMS_P2;Temp;Humidity;BMP_temperature;BMP_pressure;BME280_temperature;BME280_humidity;BME280_pressure;Samples;Min_cycle;Max_cycle;Signal;HPM_P1;HPM_P2
2022/09/25 00:00:11;;;;;;;6.00;4.60;;;;;;;;;;107035;1291;23105;-31
2022/09/25 00:03:00;;;;;;;6.30;5.00;;;;;;;;;;107068;1298;22555;-31
2022/09/25 00:05:29;;;;;;;6.20;4.70;;;;;;;;;;107073;1297;22575;-31
2022/09/25 00:07:58;;;;;;;6.40;4.50;;;;;;;;;;107090;1301;25396;-31
2022/09/25 00:10:29;;;;;;;7.00;4.80;;;;;;;;;;107067;1296;24156;-31
2022/09/25 00:12:58;;;;;;;6.30;4.40;;;;;;;;;;107105;1301;22564;-31
2022/09/25 00:15:27;;;;;;;6.40;4.80;;;;;;;;;;107004;1298;22520;-31
2022/09/25 00:17:56;;;;;;;6.10;4.40;;;;;;;;;;107017;1298;22559;-31
2022/09/25 00:20:26;;;;;;;6.70;4.50;;;;;;;;;;107040;1298;22620;-31
2022/09/25 00:22:59;;;;;;;6.50;4.60;;;;;;;;;;107041;1295;22534;-31
2022/09/25 00:25:28;;;;;;;6.60;5.20;;;;;;;;;;107040;1301;25328;-31
2022/09/25 00:27:57;;;;;;;6.20;4.50;;;;;;;;;;106943;1293;196195;-31
2022/09/25 00:30:26;;;;;;;6.40;4.90;;;;;;;;;;107109;1298;23520;-31
2022/09/25 00:32:55;;;;;;;6.30;4.70;;;;;;;;;;107096;1301;25194;-31
2022/09/25 00:35:26;;;;;;;6.30;4.90;;;;;;;;;;107033;1301;25361;-31
2022/09/25 00:37:55;;;;;;;6.30;4.90;;;;;;;;;;107060;1302;22529;-31
2022/09/25 00:40:24;;;;;;;6.60;4.80;;;;;;;;;;107048;1301;24172;-31
2022/09/25 00:42:53;;;;;;;6.80;4.90;;;;;;;;;;107036;1302;22551;-31
2022/09/25 00:45:22;;;;;;;6.40;4.40;;;;;;;;;;107035;1297;22722;-31
2022/09/25 00:47:55;;;;;;;7.80;5.20;;;;;;;;;;107101;1294;22648;-31
2022/09/25 00:50:29;;;;;;;5.90;4.60;;;;;;;;;;107095;1293;25154;-31
2022/09/25 00:53:02;;;;;;;6.20;4.60;;;;;;;;;;106928;1298;22575;-31
2022/09/25 00:55:33;;;;;;;6.60;4.80;;;;;;;;;;107037;1294;23498;-31
2022/09/25 00:58:03;;;;;;;5.70;4.60;;;;;;;;;;107023;1298;22516;-33
2022/09/25 01:00:33;;;;;;;6.20;4.70;;;;;;;;;;107064;1298;23648;-33
2022/09/25 01:03:03;;;;;;;6.80;4.90;;;;;;;;;;107059;1302;22545;-32
2022/09/25 01:05:34;;;;;;;6.20;4.20;;;;;;;;;;107026;1295;23848;-33
2022/09/25 01:08:06;;;;;;;5.90;4.40;;;;;;;;;;106872;1294;34494;-33
2022/09/25 01:10:36;;;;;;;6.10;4.30;;;;;;;;;;106823;1295;33700;-33
2022/09/25 01:13:05;;;;;;;5.90;4.30;;;;;;;;;;106827;1293;34639;-32
2022/09/25 01:15:38;;;;;;;6.20;4.50;;;;;;;;;;106784;1295;34244;-33
2022/09/25 01:18:11;;;;;;;6.60;4.90;;;;;;;;;;106762;1296;34317;-33
2022/09/25 01:21:00;;;;;;;5.80;4.50;;;;;;;;;;106773;1295;34475;-32
2022/09/25 01:23:41;;;;;;;5.90;4.50;;;;;;;;;;106802;1300;33436;-33
2022/09/25 01:26:19;;;;;;;7.10;4.70;;;;;;;;;;106751;1293;34229;-33
2022/09/25 01:28:56;;;;;;;6.00;4.40;;;;;;;;;;106847;1295;34281;-32
2022/09/25 01:31:30;;;;;;;6.40;4.60;;;;;;;;;;106822;1297;33617;-32
2022/09/25 01:34:01;;;;;;;6.20;4.70;;;;;;;;;;106816;1294;34254;-32
2022/09/25 01:36:35;;;;;;;5.70;4.40;;;;;;;;;;106772;1295;34265;-33
2022/09/25 01:39:08;;;;;;;6.20;4.60;;;;;;;;;;106824;1295;34114;-33
2022/09/25 01:41:41;;;;;;;6.00;4.50;;;;;;;;;;106769;1296;33918;-33
2022/09/25 01:44:08;;;;;;;;;;;;;;;;;;106822;1296;33502;-32
2022/09/25 01:46:40;;;;;;;6.60;4.90;;;;;;;;;;106781;1298;32720;-33
2022/09/25 01:49:11;;;;;;;6.20;4.60;;;;;;;;;;106832;1293;34428;-33
2022/09/25 01:51:43;;;;;;;6.20;4.50;;;;;;;;;;106834;1293;34098;-32
2022/09/25 01:54:15;;;;;;;6.10;4.60;;;;;;;;;;106929;1294;33571;-33
2022/09/25 01:56:50;;;;;;;5.90;4.30;;;;;;;;;;106877;1298;33156;-33
2022/09/25 01:59:24;;;;;;;6.30;4.60;;;;;;;;;;106823;1298;33658;-31
2022/09/25 02:01:56;;;;;;;6.50;4.70;;;;;;;;;;106824;1295;33096;-31
2022/09/25 02:04:28;;;;;;;6.60;4.60;;;;;;;;;;106816;1295;34082;-31
2022/09/25 02:06:59;;;;;;;6.10;4.40;;;;;;;;;;106749;1295;34393;-31
2022/09/25 02:09:31;;;;;;;6.40;4.60;;;;;;;;;;106800;1298;33629;-31
2022/09/25 02:12:07;;;;;;;6.20;4.50;;;;;;;;;;107033;1297;31807;-31
2022/09/25 02:14:38;;;;;;;6.80;4.70;;;;;;;;;;107077;1301;24429;-31
2022/09/25 02:17:11;;;;;;;6.00;4.30;;;;;;;;;;107012;1295;22524;-31
2022/09/25 02:22:33;;;;;;;6.20;4.30;;;;;;;;;;106486;1295;34229;-31
2022/09/25 02:25:05;;;;;;;5.80;4.30;;;;;;;;;;106751;1295;34495;-31
2022/09/25 02:27:34;;;;;;;6.20;4.20;;;;;;;;;;106749;1293;34703;-31
2022/09/25 02:30:04;;;;;;;6.90;4.40;;;;;;;;;;106756;1294;34239;-31
2022/09/25 02:32:33;;;;;;;5.80;4.30;;;;;;;;;;106817;1294;34210;-31
2022/09/25 02:35:04;;;;;;;5.90;4.20;;;;;;;;;;106781;1293;34058;-31
2022/09/25 02:37:33;;;;;;;6.20;4.30;;;;;;;;;;106761;1294;34091;-31
2022/09/25 02:40:04;;;;;;;6.00;4.40;;;;;;;;;;106768;1298;33630;-31
2022/09/25 02:42:38;;;;;;;6.30;4.40;;;;;;;;;;106772;1298;33693;-31
2022/09/25 02:45:14;;;;;;;5.60;4.40;;;;;;;;;;106549;1297;34777;-31
2022/09/25 02:47:50;;;;;;;6.20;4.60;;;;;;;;;;106712;1297;34122;-31
2022/09/25 02:50:24;;;;;;;6.00;4.10;;;;;;;;;;106623;1302;34965;-31
2022/09/25 02:52:51;;;;;;;;;;;;;;;;;;106842;1293;33585;-31
2022/09/25 02:55:24;;;;;;;6.00;4.20;;;;;;;;;;106617;1294;34279;-31
2022/09/25 02:57:56;;;;;;;6.10;4.60;;;;;;;;;;106712;1295;37795;-31
2022/09/25 03:00:25;;;;;;;6.00;4.60;;;;;;;;;;106761;1296;33596;-31
2022/09/25 03:02:58;;;;;;;6.00;4.40;;;;;;;;;;106742;1295;34117;-31
2022/09/25 03:05:28;;;;;;;6.40;4.60;;;;;;;;;;106774;1295;34099;-31
2022/09/25 03:10:45;;;;;;;6.10;4.40;;;;;;;;;;106820;1294;33339;-31
2022/09/25 03:13:19;;;;;;;5.80;4.30;;;;;;;;;;106799;1297;34138;-31
2022/09/25 03:15:53;;;;;;;6.10;4.30;;;;;;;;;;106779;1294;34338;-31
2022/09/25 03:18:24;;;;;;;6.20;4.40;;;;;;;;;;106719;1295;33694;-31
2022/09/25 03:20:53;;;;;;;6.10;4.40;;;;;;;;;;106766;1294;33563;-31
2022/09/25 03:23:22;;;;;;;5.90;4.40;;;;;;;;;;106775;1295;34212;-31
2022/09/25 03:25:54;;;;;;;5.80;4.60;;;;;;;;;;106766;1295;34104;-31
2022/09/25 03:28:23;;;;;;;6.10;4.40;;;;;;;;;;106769;1294;34206;-31
2022/09/25 03:31:02;;;;;;;6.00;4.70;;;;;;;;;;106758;1301;33782;-31
2022/09/25 03:33:33;;;;;;;6.00;4.40;;;;;;;;;;106785;1294;33721;-31
2022/09/25 03:36:08;;;;;;;5.70;4.20;;;;;;;;;;106781;1293;34610;-31
2022/09/25 03:38:40;;;;;;;6.30;4.50;;;;;;;;;;106737;1295;34178;-31
2022/09/25 03:41:10;;;;;;;5.60;4.50;;;;;;;;;;106738;1295;33642;-31
2022/09/25 03:43:40;;;;;;;6.50;4.50;;;;;;;;;;106763;1295;34151;-31
2022/09/25 03:46:11;;;;;;;6.50;4.70;;;;;;;;;;106763;1298;33184;-31
2022/09/25 03:48:40;;;;;;;6.80;4.90;;;;;;;;;;106530;1296;34110;-31
2022/09/25 03:51:09;;;;;;;6.40;4.90;;;;;;;;;;106803;1294;34066;-31
2022/09/25 03:53:39;;;;;;;6.40;4.90;;;;;;;;;;106774;1294;34440;-31
2022/09/25 03:56:09;;;;;;;6.20;4.40;;;;;;;;;;106767;1297;33662;-31
2022/09/25 03:58:38;;;;;;;6.10;4.40;;;;;;;;;;106735;1298;33789;-32
2022/09/25 04:01:09;;;;;;;6.30;5.00;;;;;;;;;;106762;1295;33940;-33
2022/09/25 04:03:39;;;;;;;6.20;4.60;;;;;;;;;;106783;1295;34200;-33
2022/09/25 04:06:08;;;;;;;6.10;4.50;;;;;;;;;;106737;1290;34181;-33
2022/09/25 04:08:38;;;;;;;6.60;4.50;;;;;;;;;;106740;1295;33486;-33
2022/09/25 04:11:07;;;;;;;5.90;4.40;;;;;;;;;;106772;1294;34172;-33
2022/09/25 04:13:37;;;;;;;6.30;4.80;;;;;;;;;;106783;1297;33694;-33
2022/09/25 04:16:06;;;;;;;6.90;4.70;;;;;;;;;;106597;1295;33811;-33
2022/09/25 04:18:36;;;;;;;6.50;4.50;;;;;;;;;;106736;1294;33149;-33
2022/09/25 04:21:06;;;;;;;6.60;4.90;;;;;;;;;;106776;1295;34305;-33
2022/09/25 04:23:35;;;;;;;6.10;4.50;;;;;;;;;;106790;1295;34090;-32
2022/09/25 04:26:05;;;;;;;8.20;5.00;;;;;;;;;;106765;1295;34217;-33
2022/09/25 04:28:34;;;;;;;7.30;4.60;;;;;;;;;;106765;1295;34085;-32
2022/09/25 04:31:06;;;;;;;6.70;4.60;;;;;;;;;;106749;1294;34043;-32
2022/09/25 04:33:48;;;;;;;6.90;5.00;;;;;;;;;;106765;1293;34101;-32
2022/09/25 04:36:17;;;;;;;5.90;4.80;;;;;;;;;;106801;1294;34605;-33
2022/09/25 04:38:47;;;;;;;6.00;4.60;;;;;;;;;;106776;1294;34646;-32
2022/09/25 04:41:18;;;;;;;6.50;4.80;;;;;;;;;;106741;1295;34201;-33
2022/09/25 04:43:48;;;;;;;5.90;4.80;;;;;;;;;;106863;1302;33861;-32
2022/09/25 04:46:19;;;;;;;6.40;4.70;;;;;;;;;;106822;1300;23346;-32
2022/09/25 04:48:51;;;;;;;5.90;4.60;;;;;;;;;;107023;1298;22544;-32
2022/09/25 04:51:20;;;;;;;5.90;4.60;;;;;;;;;;107031;1297;22518;-32
2022/09/25 04:53:50;;;;;;;6.40;4.70;;;;;;;;;;106920;1300;22531;-32
2022/09/25 04:56:19;;;;;;;5.80;4.40;;;;;;;;;;107027;1294;25272;-32
2022/09/25 04:58:49;;;;;;;5.50;4.30;;;;;;;;;;107079;1297;22538;-32
2022/09/25 05:01:19;;;;;;;6.60;4.60;;;;;;;;;;106990;1298;22554;-32
2022/09/25 05:03:52;;;;;;;6.90;4.80;;;;;;;;;;107030;1302;23660;-32
2022/09/25 05:06:21;;;;;;;5.70;4.50;;;;;;;;;;107058;1294;23388;-32
2022/09/25 05:08:50;;;;;;;5.90;4.60;;;;;;;;;;107042;1294;23047;-32
2022/09/25 05:11:20;;;;;;;6.30;4.70;;;;;;;;;;106980;1297;24161;-32
2022/09/25 05:13:51;;;;;;;6.30;4.80;;;;;;;;;;107024;1301;25347;-32
2022/09/25 05:16:21;;;;;;;6.90;5.40;;;;;;;;;;107047;1301;22582;-32
2022/09/25 05:18:52;;;;;;;6.30;5.10;;;;;;;;;;106905;1294;22534;-32
2022/09/25 05:21:21;;;;;;;6.10;4.90;;;;;;;;;;106986;1294;22653;-32
2022/09/25 05:23:50;;;;;;;5.90;4.60;;;;;;;;;;107031;1298;22552;-32
2022/09/25 05:26:22;;;;;;;7.00;4.80;;;;;;;;;;107034;1298;22528;-32
2022/09/25 05:28:51;;;;;;;6.10;4.60;;;;;;;;;;107041;1295;22583;-32
2022/09/25 05:31:20;;;;;;;6.70;5.30;;;;;;;;;;106994;1301;25361;-32
2022/09/25 05:33:50;;;;;;;6.90;4.80;;;;;;;;;;107088;1298;22511;-32
2022/09/25 05:36:19;;;;;;;5.90;4.80;;;;;;;;;;107024;1301;25361;-32
2022/09/25 05:38:48;;;;;;;5.80;4.90;;;;;;;;;;107036;1298;23564;-32
2022/09/25 05:41:18;;;;;;;6.60;5.00;;;;;;;;;;106969;1301;25161;-32
2022/09/25 05:43:47;;;;;;;6.40;4.90;;;;;;;;;;107004;1298;22690;-32
2022/09/25 05:46:16;;;;;;;6.00;4.70;;;;;;;;;;107037;1299;25242;-32
2022/09/25 05:48:45;;;;;;;6.40;4.90;;;;;;;;;;106731;1295;33607;-32
2022/09/25 05:51:15;;;;;;;6.60;5.00;;;;;;;;;;106990;1298;31677;-32
2022/09/25 05:53:44;;;;;;;6.40;4.70;;;;;;;;;;107023;1294;22922;-32
2022/09/25 05:56:16;;;;;;;6.70;5.00;;;;;;;;;;107046;1294;25865;-32
2022/09/25 05:58:46;;;;;;;6.70;4.90;;;;;;;;;;107037;1297;22545;-32
2022/09/25 06:01:16;;;;;;;6.30;5.00;;;;;;;;;;106995;1294;22544;-32
2022/09/25 06:03:45;;;;;;;6.70;4.80;;;;;;;;;;107025;1302;22541;-32
2022/09/25 06:06:14;;;;;;;7.00;4.80;;;;;;;;;;107040;1298;25331;-32
2022/09/25 06:08:43;;;;;;;6.80;5.50;;;;;;;;;;107023;1301;22587;-32
2022/09/25 06:11:12;;;;;;;6.40;4.80;;;;;;;;;;106980;1295;22736;-32
2022/09/25 06:13:45;;;;;;;6.80;5.10;;;;;;;;;;107048;1294;22745;-32
2022/09/25 06:16:18;;;;;;;6.60;4.90;;;;;;;;;;107060;1293;23060;-32
2022/09/25 06:18:51;;;;;;;6.60;5.00;;;;;;;;;;107016;1301;22554;-32
2022/09/25 06:21:21;;;;;;;6.60;5.30;;;;;;;;;;107015;1294;22768;-32
2022/09/25 06:23:50;;;;;;;6.90;5.00;;;;;;;;;;107036;1302;22527;-32
2022/09/25 06:26:19;;;;;;;7.10;5.00;;;;;;;;;;107043;1299;22562;-32
2022/09/25 06:28:48;;;;;;;6.50;5.00;;;;;;;;;;107026;1297;22625;-32
2022/09/25 06:31:17;;;;;;;6.10;4.60;;;;;;;;;;106985;1301;22550;-32
2022/09/25 06:33:50;;;;;;;6.20;4.70;;;;;;;;;;107052;1293;22567;-32
2022/09/25 06:36:19;;;;;;;5.80;4.60;;;;;;;;;;107045;1300;23193;-32
2022/09/25 06:38:49;;;;;;;6.60;5.00;;;;;;;;;;107029;1294;22567;-33
2022/09/25 06:41:18;;;;;;;6.50;4.80;;;;;;;;;;107033;1294;30999;-32
2022/09/25 06:43:49;;;;;;;6.40;4.50;;;;;;;;;;107108;1301;22590;-32
2022/09/25 06:46:20;;;;;;;6.20;4.60;;;;;;;;;;107131;1302;22761;-33
2022/09/25 06:48:53;;;;;;;6.70;5.10;;;;;;;;;;107133;1294;22523;-33
2022/09/25 06:51:31;;;;;;;6.30;4.90;;;;;;;;;;107160;1295;25337;-32
2022/09/25 06:54:00;;;;;;;6.50;4.80;;;;;;;;;;107214;1294;25212;-32
2022/09/25 06:56:29;;;;;;;6.90;5.00;;;;;;;;;;107257;1293;22684;-33
2022/09/25 06:58:58;;;;;;;6.00;4.80;;;;;;;;;;107269;1295;22796;-32
2022/09/25 07:01:30;;;;;;;7.40;4.90;;;;;;;;;;107243;1295;22689;-32
2022/09/25 07:04:02;;;;;;;7.00;5.40;;;;;;;;;;107146;1295;22553;-32
2022/09/25 07:06:33;;;;;;;6.90;5.50;;;;;;;;;;107146;1290;22548;-32
2022/09/25 07:09:03;;;;;;;6.70;5.00;;;;;;;;;;107152;1295;22569;-32
2022/09/25 07:11:32;;;;;;;7.10;5.80;;;;;;;;;;107123;1301;22557;-32
2022/09/25 07:14:02;;;;;;;7.80;5.60;;;;;;;;;;107210;1295;22840;-32
2022/09/25 07:16:34;;;;;;;8.40;5.50;;;;;;;;;;107277;1301;22558;-32
2022/09/25 07:19:04;;;;;;;7.60;5.50;;;;;;;;;;106944;1300;22983;-32
2022/09/25 07:21:33;;;;;;;7.60;5.40;;;;;;;;;;107278;1293;22558;-31
2022/09/25 07:24:02;;;;;;;6.80;5.20;;;;;;;;;;107121;1298;25248;-31
2022/09/25 07:26:33;;;;;;;8.60;5.80;;;;;;;;;;107128;1295;23812;-31
2022/09/25 07:29:07;;;;;;;7.20;5.60;;;;;;;;;;107137;1295;23772;-31
2022/09/25 07:31:37;;;;;;;8.20;6.70;;;;;;;;;;107139;1301;22522;-31
2022/09/25 07:34:08;;;;;;;7.70;6.30;;;;;;;;;;107209;1295;22555;-31
2022/09/25 07:36:40;;;;;;;8.90;6.70;;;;;;;;;;107259;1301;22557;-31
2022/09/25 07:39:09;;;;;;;8.80;7.10;;;;;;;;;;107285;1297;22548;-31
2022/09/25 07:41:38;;;;;;;9.60;8.10;;;;;;;;;;107282;1301;22555;-31
2022/09/25 07:44:08;;;;;;;8.50;7.50;;;;;;;;;;107141;1298;22534;-31
2022/09/25 07:46:41;;;;;;;10.00;7.60;;;;;;;;;;107123;1298;22548;-31
2022/09/25 07:49:13;;;;;;;8.90;7.90;;;;;;;;;;107149;1295;22544;-31
2022/09/25 07:51:42;;;;;;;9.10;7.80;;;;;;;;;;107112;1295;22540;-31
2022/09/25 07:54:11;;;;;;;10.30;7.90;;;;;;;;;;107238;1295;22537;-31
2022/09/25 07:56:41;;;;;;;9.90;8.00;;;;;;;;;;107270;1298;22529;-31
2022/09/25 07:59:10;;;;;;;9.40;7.60;;;;;;;;;;107251;1294;22607;-31
2022/09/25 08:01:42;;;;;;;9.70;8.00;;;;;;;;;;107289;1301;22549;-31
2022/09/25 08:04:11;;;;;;;9.40;8.00;;;;;;;;;;107163;1301;25330;-31
2022/09/25 08:06:40;;;;;;;9.40;8.00;;;;;;;;;;107137;1298;22551;-31
2022/09/25 08:09:11;;;;;;;9.90;7.90;;;;;;;;;;107158;1298;24135;-31
2022/09/25 08:11:41;;;;;;;9.50;8.00;;;;;;;;;;107148;1295;25440;-31
2022/09/25 08:14:13;;;;;;;8.90;7.70;;;;;;;;;;107088;1298;22676;-31
2022/09/25 08:16:42;;;;;;;9.50;8.00;;;;;;;;;;107146;1300;23532;-31
2022/09/25 08:19:12;;;;;;;9.80;7.80;;;;;;;;;;107151;1298;22707;-31
2022/09/25 08:21:42;;;;;;;10.00;8.30;;;;;;;;;;107042;1301;22692;-31
2022/09/25 08:24:11;;;;;;;9.70;8.10;;;;;;;;;;107106;1294;22606;-31
2022/09/25 08:26:41;;;;;;;10.60;8.20;;;;;;;;;;107133;1298;22515;-31
2022/09/25 08:29:10;;;;;;;9.50;7.90;;;;;;;;;;106993;1295;159347;-31
2022/09/25 08:31:40;;;;;;;9.80;8.20;;;;;;;;;;107132;1298;25283;-31
2022/09/25 08:34:09;;;;;;;10.40;8.40;;;;;;;;;;107134;1298;22653;-31
2022/09/25 08:36:38;;;;;;;9.90;8.50;;;;;;;;;;107133;1295;22699;-31
2022/09/25 08:39:08;;;;;;;10.60;8.40;;;;;;;;;;107131;1298;22547;-31
2022/09/25 08:41:42;;;;;;;9.50;8.40;;;;;;;;;;107140;1297;22538;-31
2022/09/25 08:44:16;;;;;;;9.40;8.10;;;;;;;;;;107102;1301;22514;-31
2022/09/25 08:49:36;;;;;;;9.40;8.20;;;;;;;;;;107153;1295;22615;-31
2022/09/25 08:52:06;;;;;;;9.50;8.30;;;;;;;;;;107168;1301;22554;-31
2022/09/25 08:54:36;;;;;;;8.60;7.70;;;;;;;;;;107121;1295;23676;-31
2022/09/25 08:57:11;;;;;;;8.80;7.90;;;;;;;;;;107184;1289;22566;-31
2022/09/25 08:59:43;;;;;;;9.00;8.00;;;;;;;;;;107186;1297;22507;-31
2022/09/25 09:02:13;;;;;;;10.60;8.40;;;;;;;;;;107053;1298;22519;-31
2022/09/25 09:04:44;;;;;;;8.70;7.80;;;;;;;;;;107121;1295;23753;-31
2022/09/25 09:07:16;;;;;;;8.70;7.60;;;;;;;;;;107163;1298;22645;-31
2022/09/25 09:09:47;;;;;;;8.40;7.40;;;;;;;;;;107141;1295;22551;-31
2022/09/25 09:12:18;;;;;;;9.30;8.00;;;;;;;;;;107151;1295;22621;-31
2022/09/25 09:14:48;;;;;;;9.40;8.00;;;;;;;;;;107104;1298;22538;-31
2022/09/25 09:17:20;;;;;;;9.10;7.50;;;;;;;;;;107276;1294;22679;-31
2022/09/25 09:19:51;;;;;;;7.90;6.90;;;;;;;;;;107298;1295;22531;-31
2022/09/25 09:22:24;;;;;;;8.20;7.20;;;;;;;;;;106981;1297;22555;-31
2022/09/25 09:25:00;;;;;;;9.50;7.70;;;;;;;;;;107263;1295;22555;-31
2022/09/25 09:27:33;;;;;;;8.40;7.50;;;;;;;;;;107178;1302;22548;-31
2022/09/25 09:30:13;;;;;;;8.00;6.80;;;;;;;;;;107168;1295;22575;-31
2022/09/25 09:32:48;;;;;;;7.80;7.00;;;;;;;;;;107187;1298;22575;-31
2022/09/25 09:35:24;;;;;;;8.10;7.30;;;;;;;;;;107150;1298;22616;-31
2022/09/25 09:37:57;;;;;;;8.30;7.10;;;;;;;;;;107283;1301;22553;-31
2022/09/25 09:40:36;;;;;;;9.40;7.50;;;;;;;;;;107309;1297;22855;-31
2022/09/25 09:43:11;;;;;;;8.00;7.20;;;;;;;;;;107291;1295;23711;-31
2022/09/25 09:45:44;;;;;;;7.60;6.80;;;;;;;;;;107203;1294;25747;-31
2022/09/25 09:48:12;;;;;;;;;;;;;;;;;;107177;1298;22595;-31
2022/09/25 09:50:44;;;;;;;8.60;6.80;;;;;;;;;;107145;1298;23709;-31
2022/09/25 09:53:17;;;;;;;7.90;7.10;;;;;;;;;;107140;1295;22701;-31
2022/09/25 09:55:49;;;;;;;7.30;6.50;;;;;;;;;;107134;1298;23860;-32
2022/09/25 09:58:20;;;;;;;8.40;7.20;;;;;;;;;;107258;1298;25254;-33
2022/09/25 10:00:50;;;;;;;8.10;6.80;;;;;;;;;;107268;1298;22548;-32
2022/09/25 10:03:23;;;;;;;7.40;6.20;;;;;;;;;;107267;1295;22544;-33
2022/09/25 10:05:56;;;;;;;8.00;6.70;;;;;;;;;;107215;1300;23687;-33
2022/09/25 10:08:25;;;;;;;7.40;6.50;;;;;;;;;;107128;1299;22614;-33
2022/09/25 10:10:55;;;;;;;7.10;6.30;;;;;;;;;;107169;1298;22542;-33
2022/09/25 10:13:27;;;;;;;7.80;7.00;;;;;;;;;;107160;1301;22547;-33
2022/09/25 10:15:59;;;;;;;7.40;6.30;;;;;;;;;;107104;1298;22530;-33
2022/09/25 10:18:31;;;;;;;7.10;6.20;;;;;;;;;;107147;1299;22551;-33
2022/09/25 10:21:03;;;;;;;7.60;6.50;;;;;;;;;;107166;1294;22511;-33
2022/09/25 10:23:36;;;;;;;7.50;6.40;;;;;;;;;;107129;1293;25168;-32
2022/09/25 10:26:22;;;;;;;7.50;6.40;;;;;;;;;;107136;1294;22543;-33
2022/09/25 10:28:51;;;;;;;7.60;6.80;;;;;;;;;;106941;1298;31884;-33
2022/09/25 10:31:21;;;;;;;7.00;6.30;;;;;;;;;;107070;1301;22624;-33
2022/09/25 10:34:06;;;;;;;7.50;6.20;;;;;;;;;;107210;1302;25168;-33
2022/09/25 10:36:40;;;;;;;7.20;5.80;;;;;;;;;;107157;1295;22516;-33
2022/09/25 10:42:29;;;;;;;7.90;6.30;;;;;;;;;;102431;1336;568081;-33
2022/09/25 10:44:58;;;;;;;7.80;6.00;;;;;;;;;;105508;1307;33662;-33
2022/09/25 10:50:22;;;;;;;7.40;6.00;;;;;;;;;;105247;1315;33497;-33
2022/09/25 10:52:54;;;;;;;8.10;6.30;;;;;;;;;;105458;1308;33518;-33
2022/09/25 10:55:27;;;;;;;8.30;5.80;;;;;;;;;;105445;1308;118084;-33
2022/09/25 10:58:03;;;;;;;7.50;6.30;;;;;;;;;;105603;1304;33381;-32
2022/09/25 11:00:35;;;;;;;7.30;5.80;;;;;;;;;;105610;1304;33398;-32
2022/09/25 11:03:06;;;;;;;9.00;6.00;;;;;;;;;;105855;1304;33471;-32
2022/09/25 11:05:37;;;;;;;7.30;6.00;;;;;;;;;;105886;1308;32906;-32
2022/09/25 11:08:08;;;;;;;6.50;5.50;;;;;;;;;;105898;1305;33679;-33
2022/09/25 11:10:46;;;;;;;12.40;6.80;;;;;;;;;;105901;1304;33657;-33
2022/09/25 11:13:23;;;;;;;12.10;7.10;;;;;;;;;;105898;1303;33890;-33
2022/09/25 11:15:54;;;;;;;11.00;6.60;;;;;;;;;;106118;1304;33562;-33
2022/09/25 11:18:36;;;;;;;10.10;6.60;;;;;;;;;;106141;1301;33543;-33
2022/09/25 11:21:17;;;;;;;9.10;6.50;;;;;;;;;;106151;1304;33400;-33
2022/09/25 11:23:52;;;;;;;9.20;6.00;;;;;;;;;;106075;1301;33520;-33
2022/09/25 11:26:24;;;;;;;10.80;6.20;;;;;;;;;;106118;1301;33609;-33
2022/09/25 11:29:00;;;;;;;8.50;6.10;;;;;;;;;;106154;1301;33511;-33
2022/09/25 11:31:33;;;;;;;9.50;6.00;;;;;;;;;;106123;1304;33091;-33
2022/09/25 11:34:06;;;;;;;8.70;6.20;;;;;;;;;;106214;1302;42141;-33
2022/09/25 11:36:39;;;;;;;9.30;5.90;;;;;;;;;;106146;1304;33471;-33
2022/09/25 11:41:57;;;;;;;7.50;5.50;;;;;;;;;;106076;1304;33561;-33
2022/09/25 11:44:30;;;;;;;7.90;5.50;;;;;;;;;;106128;1301;41564;-33
2022/09/25 11:47:04;;;;;;;8.10;5.50;;;;;;;;;;106130;1304;33411;-32
2022/09/25 11:49:36;;;;;;;8.10;5.50;;;;;;;;;;106131;1304;33659;-32
2022/09/25 11:52:15;;;;;;;9.70;5.70;;;;;;;;;;106092;1301;33498;-32
2022/09/25 11:54:52;;;;;;;6.90;5.60;;;;;;;;;;106073;1301;41643;-32
2022/09/25 11:57:26;;;;;;;8.20;5.80;;;;;;;;;;106068;1304;33620;-32
2022/09/25 12:00:03;;;;;;;8.40;6.20;;;;;;;;;;106085;1301;33625;-32
2022/09/25 12:02:39;;;;;;;15.10;10.70;;;;;;;;;;106032;1302;33927;-32
2022/09/25 12:05:22;;;;;;;13.80;12.30;;;;;;;;;;106071;1301;33824;-32
2022/09/25 12:08:09;;;;;;;11.40;9.40;;;;;;;;;;106068;1301;33592;-32
2022/09/25 12:10:45;;;;;;;10.10;8.60;;;;;;;;;;106072;1308;33129;-32
2022/09/25 12:13:19;;;;;;;9.60;7.70;;;;;;;;;;106057;1301;33619;-32
2022/09/25 12:15:55;;;;;;;8.90;7.10;;;;;;;;;;106080;1301;33586;-32
2022/09/25 12:18:36;;;;;;;9.50;7.20;;;;;;;;;;106061;1302;33423;-32
2022/09/25 12:21:08;;;;;;;10.40;8.90;;;;;;;;;;106078;1301;33686;-32
2022/09/25 12:23:41;;;;;;;10.80;8.70;;;;;;;;;;106020;1301;34008;-32
2022/09/25 12:26:24;;;;;;;13.00;10.80;;;;;;;;;;106077;1301;33679;-32
2022/09/25 12:29:03;;;;;;;12.20;10.10;;;;;;;;;;106066;1304;33354;-32
2022/09/25 12:31:38;;;;;;;11.10;8.90;;;;;;;;;;106101;1301;33542;-31
2022/09/25 12:34:14;;;;;;;10.70;8.70;;;;;;;;;;106028;1302;33589;-31
2022/09/25 12:36:46;;;;;;;11.20;8.50;;;;;;;;;;106068;1302;33251;-31
2022/09/25 12:39:24;;;;;;;11.00;8.80;;;;;;;;;;106112;1301;33111;-31
2022/09/25 12:41:55;;;;;;;12.40;9.10;;;;;;;;;;106123;1301;33447;-31
2022/09/25 12:44:29;;;;;;;11.10;8.90;;;;;;;;;;106123;1302;34066;-30
2022/09/25 12:46:56;;;;;;;;;;;;;;;;;;106094;1301;33280;-31
2022/09/25 12:49:27;;;;;;;10.80;8.10;;;;;;;;;;106086;1301;33603;-31
2022/09/25 12:51:59;;;;;;;11.50;8.20;;;;;;;;;;106089;1301;33815;-31
2022/09/25 12:54:32;;;;;;;10.30;8.00;;;;;;;;;;105887;1301;33130;-30
2022/09/25 12:57:04;;;;;;;10.50;8.40;;;;;;;;;;106103;1302;33590;-32
2022/09/25 12:59:37;;;;;;;10.60;8.10;;;;;;;;;;105961;1301;33551;-31
2022/09/25 13:02:11;;;;;;;10.80;8.30;;;;;;;;;;105978;1302;34005;-31
2022/09/25 13:04:54;;;;;;;11.70;8.40;;;;;;;;;;105964;1301;33580;-30
2022/09/25 13:07:27;;;;;;;11.10;9.20;;;;;;;;;;106068;1301;33534;-29
2022/09/25 13:09:56;;;;;;;11.30;9.10;;;;;;;;;;106041;1302;34366;-30
2022/09/25 13:12:32;;;;;;;11.20;8.70;;;;;;;;;;106024;1301;33799;-31
2022/09/25 13:15:03;;;;;;;11.00;8.60;;;;;;;;;;106018;1305;33531;-32
2022/09/25 13:17:32;;;;;;;13.00;9.10;;;;;;;;;;105982;1301;36070;-31
2022/09/25 13:20:19;;;;;;;11.00;8.90;;;;;;;;;;106031;1308;33456;-31
2022/09/25 13:22:49;;;;;;;22.70;12.90;;;;;;;;;;105917;1308;34025;-31
2022/09/25 13:25:19;;;;;;;14.50;12.00;;;;;;;;;;105931;1301;33658;-31
2022/09/25 13:27:54;;;;;;;15.30;12.60;;;;;;;;;;105964;1301;33949;-32
2022/09/25 13:30:27;;;;;;;13.10;10.40;;;;;;;;;;106451;1302;33553;-32
2022/09/25 13:33:01;;;;;;;14.70;11.20;;;;;;;;;;106056;1301;33651;-31
2022/09/25 13:35:34;;;;;;;16.20;12.60;;;;;;;;;;106031;1301;33986;-31
2022/09/25 13:40:41;;;;;;;14.20;11.80;;;;;;;;;;106004;1301;33703;-31
2022/09/25 13:41:10;;;;;;;15.50;11.50;;;;;;;;;;106031;1305;33482;-31
2022/09/25 13:43:40;;;;;;;15.60;11.30;;;;;;;;;;106060;1301;33613;-32
2022/09/25 13:46:26;;;;;;;13.90;10.80;;;;;;;;;;105944;1305;33518;-32
2022/09/25 13:49:10;;;;;;;14.50;10.60;;;;;;;;;;106039;1305;33409;-32
2022/09/25 13:51:44;;;;;;;13.20;11.20;;;;;;;;;;106018;1301;33543;-32
2022/09/25 13:54:25;;;;;;;13.80;10.80;;;;;;;;;;106035;1301;33547;-32
2022/09/25 13:56:54;;;;;;;13.50;10.20;;;;;;;;;;105970;1302;33943;-32
2022/09/25 13:59:43;;;;;;;14.30;10.90;;;;;;;;;;106037;1301;33531;-32
2022/09/25 14:02:38;;;;;;;13.30;10.30;;;;;;;;;;106005;1306;33338;-33
2022/09/25 14:05:14;;;;;;;13.80;9.60;;;;;;;;;;106031;1301;33943;-33
2022/09/25 14:07:43;;;;;;;12.60;10.40;;;;;;;;;;106020;1301;34043;-33
2022/09/25 14:10:12;;;;;;;14.80;10.60;;;;;;;;;;106071;1301;33812;-33
2022/09/25 14:12:43;;;;;;;13.00;10.20;;;;;;;;;;106058;1304;33648;-31
2022/09/25 14:15:20;;;;;;;14.20;9.80;;;;;;;;;;106003;1301;34313;-31
2022/09/25 14:17:51;;;;;;;13.10;10.10;;;;;;;;;;106039;1302;33962;-31
2022/09/25 14:20:26;;;;;;;12.00;9.40;;;;;;;;;;106061;1304;33678;-31
2022/09/25 14:22:57;;;;;;;11.60;9.30;;;;;;;;;;106017;1301;33540;-29
2022/09/25 14:25:31;;;;;;;12.40;9.30;;;;;;;;;;105985;1301;34042;-29
2022/09/25 14:28:01;;;;;;;14.00;9.70;;;;;;;;;;106033;1306;33724;-29
2022/09/25 14:30:31;;;;;;;12.90;9.10;;;;;;;;;;106035;1305;33047;-29
2022/09/25 14:33:12;;;;;;;11.70;9.10;;;;;;;;;;106024;1301;35886;-29
2022/09/25 14:35:45;;;;;;;11.90;9.10;;;;;;;;;;105987;1301;33544;-29
2022/09/25 14:38:35;;;;;;;11.40;9.20;;;;;;;;;;106051;1301;34018;-33
2022/09/25 14:41:17;;;;;;;14.40;9.40;;;;;;;;;;106029;1301;33320;-33
2022/09/25 14:43:54;;;;;;;12.10;9.50;;;;;;;;;;106033;1301;34034;-31
2022/09/25 14:46:23;;;;;;;12.30;9.60;;;;;;;;;;106005;1301;33551;-31
2022/09/25 14:48:55;;;;;;;11.60;8.40;;;;;;;;;;106012;1304;33488;-32
2022/09/25 14:51:26;;;;;;;10.90;8.80;;;;;;;;;;106054;1301;33095;-33
2022/09/25 14:53:58;;;;;;;10.40;8.40;;;;;;;;;;106081;1302;34165;-32
2022/09/25 14:56:30;;;;;;;11.00;9.10;;;;;;;;;;106031;1305;33653;-33
2022/09/25 14:59:02;;;;;;;10.70;9.40;;;;;;;;;;106106;1301;34031;-33
2022/09/25 15:01:33;;;;;;;11.60;8.90;;;;;;;;;;106081;1308;33757;-33
2022/09/25 15:04:03;;;;;;;10.80;8.90;;;;;;;;;;106004;1305;32136;-33
2022/09/25 15:06:33;;;;;;;11.00;8.80;;;;;;;;;;106018;1301;33424;-33
2022/09/25 15:09:03;;;;;;;9.60;8.00;;;;;;;;;;106078;1301;35093;-33
2022/09/25 15:11:40;;;;;;;10.70;8.40;;;;;;;;;;106025;1301;34364;-33